sensor_id;sensor_type;location;lat;lon;timestamp;pressure;altitude;pressure_sealevel;temperature;humidity
69879;BME280;57161;43.136;24.706;2022-07-10T00:00:12;98956.16;;;19.03;73.21
69879;BME280;57161;43.136;24.706;2022-07-10T00:02:42;98960.03;;;19.08;72.81
69879;BME280;57161;43.136;24.706;2022-07-10T00:05:09;98943.84;;;18.99;72.41
69879;BME280;57161;43.136;24.706;2022-07-10T00:07:36;98957.09;;;19.17;72.05
69879;BME280;57161;43.136;24.706;2022-07-10T00:10:03;98960.69;;;19.30;71.79
69879;BME280;57161;43.136;24.706;2022-07-10T00:12:29;98941.72;;;19.21;71.51
69879;BME280;57161;43.136;24.706;2022-07-10T00:14:54;98929.88;;;19.12;71.23
69879;BME280;57161;43.136;24.706;2022-07-10T00:17:20;98953.31;;;19.25;71.03
69879;BME280;57161;43.136;24.706;2022-07-10T00:19:45;98972.81;;;19.42;71.22
69879;BME280;57161;43.136;24.706;2022-07-10T00:22:11;98953.44;;;19.27;71.38
69879;BME280;57161;43.136;24.706;2022-07-10T00:24:36;98953.34;;;19.36;71.46
69879;BME280;57161;43.136;24.706;2022-07-10T00:27:02;98947.06;;;19.38;71.62
69879;BME280;57161;43.136;24.706;2022-07-10T00:29:27;98932.91;;;19.38;71.37
69879;BME280;57161;43.136;24.706;2022-07-10T00:31:53;98930.19;;;19.40;70.98
69879;BME280;57161;43.136;24.706;2022-07-10T00:34:18;98883.81;;;19.12;68.86
69879;BME280;57161;43.136;24.706;2022-07-10T00:36:44;98944.50;;;19.54;68.79
69879;BME280;57161;43.136;24.706;2022-07-10T00:39:10;98939.88;;;19.58;68.65
69879;BME280;57161;43.136;24.706;2022-07-10T00:41:35;98943.81;;;19.65;67.95
69879;BME280;57161;43.136;24.706;2022-07-10T00:44:02;98927.44;;;19.75;68.87
69879;BME280;57161;43.136;24.706;2022-07-10T00:46:29;98948.50;;;19.95;69.45
69879;BME280;57161;43.136;24.706;2022-07-10T00:48:56;98957.41;;;20.01;68.35
69879;BME280;57161;43.136;24.706;2022-07-10T00:51:28;98945.78;;;19.97;68.11
69879;BME280;57161;43.136;24.706;2022-07-10T00:53:55;98945.19;;;19.87;69.39
69879;BME280;57161;43.136;24.706;2022-07-10T00:56:23;98938.91;;;19.89;70.21
69879;BME280;57161;43.136;24.706;2022-07-10T00:58:49;98924.59;;;19.75;70.36
69879;BME280;57161;43.136;24.706;2022-07-10T01:01:16;98944.19;;;19.83;70.58
69879;BME280;57161;43.136;24.706;2022-07-10T01:03:42;98913.75;;;19.71;71.14
69879;BME280;57161;43.136;24.706;2022-07-10T01:06:09;98910.53;;;19.77;71.01
69879;BME280;57161;43.136;24.706;2022-07-10T01:08:34;98901.56;;;19.69;70.48
69879;BME280;57161;43.136;24.706;2022-07-10T01:11:01;98925.09;;;19.83;71.48
69879;BME280;57161;43.136;24.706;2022-07-10T01:13:27;98893.66;;;19.67;71.16
69879;BME280;57161;43.136;24.706;2022-07-10T01:15:52;98904.75;;;19.75;71.43
69879;BME280;57161;43.136;24.706;2022-07-10T01:18:19;98909.56;;;19.72;71.51
69879;BME280;57161;43.136;24.706;2022-07-10T01:20:44;98897.72;;;19.64;71.59
69879;BME280;57161;43.136;24.706;2022-07-10T01:23:10;98887.25;;;19.55;70.73
69879;BME280;57161;43.136;24.706;2022-07-10T01:25:36;98890.84;;;19.56;71.19
69879;BME280;57161;43.136;24.706;2022-07-10T01:28:01;98893.50;;;19.54;71.33
69879;BME280;57161;43.136;24.706;2022-07-10T01:30:27;98872.56;;;19.47;69.94
69879;BME280;57161;43.136;24.706;2022-07-10T01:32:52;98886.59;;;19.45;70.54
69879;BME280;57161;43.136;24.706;2022-07-10T01:35:18;98877.22;;;19.42;70.80
69879;BME280;57161;43.136;24.706;2022-07-10T01:37:44;98878.94;;;19.47;70.78
69879;BME280;57161;43.136;24.706;2022-07-10T01:40:10;98890.84;;;19.56;70.38
69879;BME280;57161;43.136;24.706;2022-07-10T01:42:36;98862.34;;;19.42;70.69
69879;BME280;57161;43.136;24.706;2022-07-10T01:45:05;98890.34;;;19.59;70.21
69879;BME280;57161;43.136;24.706;2022-07-10T01:47:30;98873.03;;;19.43;70.55
69879;BME280;57161;43.136;24.706;2022-07-10T01:49:56;98837.78;;;19.11;71.95
69879;BME280;57161;43.136;24.706;2022-07-10T01:52:21;98860.34;;;19.21;72.17
69879;BME280;57161;43.136;24.706;2022-07-10T01:54:47;98869.69;;;19.24;72.92
69879;BME280;57161;43.136;24.706;2022-07-10T01:57:13;98898.75;;;19.36;73.14
69879;BME280;57161;43.136;24.706;2022-07-10T01:59:39;98899.38;;;19.23;74.40
69879;BME280;57161;43.136;24.706;2022-07-10T02:02:05;98884.19;;;19.06;73.27
69879;BME280;57161;43.136;24.706;2022-07-10T02:04:30;98876.56;;;19.09;72.84
69879;BME280;57161;43.136;24.706;2022-07-10T02:07:12;98883.31;;;19.04;74.38
69879;BME280;57161;43.136;24.706;2022-07-10T02:09:38;98868.59;;;18.84;74.56
69879;BME280;57161;43.136;24.706;2022-07-10T02:12:08;98859.06;;;18.68;74.29
69879;BME280;57161;43.136;24.706;2022-07-10T02:14:35;98894.59;;;18.92;74.99
69879;BME280;57161;43.136;24.706;2022-07-10T02:17:00;98906.88;;;18.85;75.11
69879;BME280;57161;43.136;24.706;2022-07-10T02:19:26;98862.41;;;18.54;74.77
69879;BME280;57161;43.136;24.706;2022-07-10T02:21:52;98884.53;;;18.68;74.92
69879;BME280;57161;43.136;24.706;2022-07-10T02:24:19;98886.06;;;18.80;74.60
69879;BME280;57161;43.136;24.706;2022-07-10T02:26:44;98871.13;;;18.68;74.31
69879;BME280;57161;43.136;24.706;2022-07-10T02:29:09;98877.81;;;18.84;74.15
69879;BME280;57161;43.136;24.706;2022-07-10T02:31:35;98879.19;;;18.83;73.72
69879;BME280;57161;43.136;24.706;2022-07-10T02:34:14;98895.25;;;19.02;73.45
69879;BME280;57161;43.136;24.706;2022-07-10T02:36:40;98884.75;;;18.93;73.50
69879;BME280;57161;43.136;24.706;2022-07-10T02:39:06;98880.94;;;19.00;73.08
69879;BME280;57161;43.136;24.706;2022-07-10T02:41:32;98890.84;;;19.11;72.70
69879;BME280;57161;43.136;24.706;2022-07-10T02:43:57;98896.13;;;19.16;72.98
69879;BME280;57161;43.136;24.706;2022-07-10T02:46:24;98887.53;;;19.14;73.43
69879;BME280;57161;43.136;24.706;2022-07-10T02:48:49;98905.38;;;19.17;73.71
69879;BME280;57161;43.136;24.706;2022-07-10T02:51:15;98888.22;;;19.03;74.42
69879;BME280;57161;43.136;24.706;2022-07-10T02:53:40;98888.22;;;19.03;74.40
69879;BME280;57161;43.136;24.706;2022-07-10T02:56:06;98911.22;;;18.98;74.95
69879;BME280;57161;43.136;24.706;2022-07-10T02:58:32;98910.38;;;18.95;75.40
69879;BME280;57161;43.136;24.706;2022-07-10T03:00:58;98909.94;;;18.77;75.79
69879;BME280;57161;43.136;24.706;2022-07-10T03:03:24;98935.28;;;18.75;77.10
69879;BME280;57161;43.136;24.706;2022-07-10T03:05:49;98936.94;;;18.69;76.79
69879;BME280;57161;43.136;24.706;2022-07-10T03:08:14;98917.53;;;18.53;77.31
69879;BME280;57161;43.136;24.706;2022-07-10T03:10:40;98938.03;;;18.64;77.42
69879;BME280;57161;43.136;24.706;2022-07-10T03:13:06;98882.59;;;18.27;78.71
69879;BME280;57161;43.136;24.706;2022-07-10T03:15:31;98898.72;;;18.37;78.83
69879;BME280;57161;43.136;24.706;2022-07-10T03:17:57;98900.38;;;18.40;78.90
69879;BME280;57161;43.136;24.706;2022-07-10T03:20:22;98911.06;;;18.41;79.23
69879;BME280;57161;43.136;24.706;2022-07-10T03:22:48;98875.50;;;18.17;79.74
69879;BME280;57161;43.136;24.706;2022-07-10T03:25:13;98948.13;;;18.67;79.33
69879;BME280;57161;43.136;24.706;2022-07-10T03:27:39;98937.47;;;18.55;79.67
69879;BME280;57161;43.136;24.706;2022-07-10T03:30:06;98937.13;;;18.61;80.13
69879;BME280;57161;43.136;24.706;2022-07-10T03:32:31;98962.09;;;18.74;80.10
69879;BME280;57161;43.136;24.706;2022-07-10T03:34:57;98946.59;;;18.75;80.46
69879;BME280;57161;43.136;24.706;2022-07-10T03:37:23;98936.63;;;18.74;79.56
69879;BME280;57161;43.136;24.706;2022-07-10T03:39:48;98926.97;;;18.68;80.30
69879;BME280;57161;43.136;24.706;2022-07-10T03:42:13;98944.63;;;18.78;80.48
69879;BME280;57161;43.136;24.706;2022-07-10T03:44:39;98899.53;;;18.49;80.24
69879;BME280;57161;43.136;24.706;2022-07-10T03:47:05;98836.88;;;18.10;79.31
69879;BME280;57161;43.136;24.706;2022-07-10T03:49:31;98917.13;;;18.69;77.88
69879;BME280;57161;43.136;24.706;2022-07-10T03:52:00;98903.91;;;18.62;77.70
69879;BME280;57161;43.136;24.706;2022-07-10T03:54:26;98929.00;;;18.77;77.34
69879;BME280;57161;43.136;24.706;2022-07-10T03:56:52;98908.38;;;18.65;77.09
69879;BME280;57161;43.136;24.706;2022-07-10T03:59:36;98920.16;;;18.82;76.93
69879;BME280;57161;43.136;24.706;2022-07-10T04:02:02;98911.88;;;18.75;76.50
69879;BME280;57161;43.136;24.706;2022-07-10T04:04:27;98910.19;;;18.81;76.67
69879;BME280;57161;43.136;24.706;2022-07-10T04:06:53;98928.94;;;18.98;76.28
69879;BME280;57161;43.136;24.706;2022-07-10T04:09:18;98918.00;;;18.93;76.48
69879;BME280;57161;43.136;24.706;2022-07-10T04:11:44;98922.19;;;19.03;76.84
69879;BME280;57161;43.136;24.706;2022-07-10T04:14:09;98915.06;;;19.02;76.92
69879;BME280;57161;43.136;24.706;2022-07-10T04:16:34;98914.09;;;19.09;77.49
69879;BME280;57161;43.136;24.706;2022-07-10T04:19:00;98895.38;;;19.04;77.57
69879;BME280;57161;43.136;24.706;2022-07-10T04:21:25;98918.59;;;19.24;76.55
69879;BME280;57161;43.136;24.706;2022-07-10T04:23:51;98914.47;;;19.15;77.20
69879;BME280;57161;43.136;24.706;2022-07-10T04:26:16;98889.97;;;19.08;76.05
69879;BME280;57161;43.136;24.706;2022-07-10T04:28:42;98895.28;;;19.14;76.79
69879;BME280;57161;43.136;24.706;2022-07-10T04:31:07;98848.91;;;18.74;77.30
69879;BME280;57161;43.136;24.706;2022-07-10T04:33:33;98920.03;;;19.13;78.16
69879;BME280;57161;43.136;24.706;2022-07-10T04:35:58;98892.09;;;18.75;77.96
69879;BME280;57161;43.136;24.706;2022-07-10T04:38:23;98901.69;;;18.81;79.20
69879;BME280;57161;43.136;24.706;2022-07-10T04:40:49;98915.94;;;19.05;79.16
69879;BME280;57161;43.136;24.706;2022-07-10T04:43:15;98897.31;;;19.02;77.49
69879;BME280;57161;43.136;24.706;2022-07-10T04:45:40;98891.94;;;19.06;77.66
69879;BME280;57161;43.136;24.706;2022-07-10T04:48:06;98909.06;;;19.19;76.21
69879;BME280;57161;43.136;24.706;2022-07-10T04:50:31;98905.16;;;19.25;77.15
69879;BME280;57161;43.136;24.706;2022-07-10T04:52:57;98903.94;;;19.28;76.96
69879;BME280;57161;43.136;24.706;2022-07-10T04:55:23;98899.88;;;19.31;75.68
69879;BME280;57161;43.136;24.706;2022-07-10T04:57:48;98916.41;;;19.46;76.49
69879;BME280;57161;43.136;24.706;2022-07-10T05:00:14;98923.94;;;19.53;76.30
69879;BME280;57161;43.136;24.706;2022-07-10T05:02:40;98905.81;;;19.46;76.32
69879;BME280;57161;43.136;24.706;2022-07-10T05:05:06;98913.75;;;19.60;75.99
69879;BME280;57161;43.136;24.706;2022-07-10T05:07:32;98903.84;;;19.49;76.08
69879;BME280;57161;43.136;24.706;2022-07-10T05:09:57;98907.28;;;19.47;76.45
69879;BME280;57161;43.136;24.706;2022-07-10T05:12:23;98895.81;;;19.45;76.70
69879;BME280;57161;43.136;24.706;2022-07-10T05:14:48;98907.41;;;19.49;77.04
69879;BME280;57161;43.136;24.706;2022-07-10T05:17:13;98915.59;;;19.55;76.35
69879;BME280;57161;43.136;24.706;2022-07-10T05:19:39;98906.59;;;19.59;76.32
69879;BME280;57161;43.136;24.706;2022-07-10T05:22:04;98884.13;;;19.39;76.24
69879;BME280;57161;43.136;24.706;2022-07-10T05:24:30;98910.97;;;19.50;76.62
69879;BME280;57161;43.136;24.706;2022-07-10T05:26:55;98914.97;;;19.57;76.52
69879;BME280;57161;43.136;24.706;2022-07-10T05:29:21;98921.38;;;19.57;76.33
69879;BME280;57161;43.136;24.706;2022-07-10T05:31:46;98912.47;;;19.51;77.09
69879;BME280;57161;43.136;24.706;2022-07-10T05:34:11;98911.53;;;19.58;76.16
69879;BME280;57161;43.136;24.706;2022-07-10T05:36:37;98915.34;;;19.63;76.50
69879;BME280;57161;43.136;24.706;2022-07-10T05:39:02;98921.13;;;19.65;75.53
69879;BME280;57161;43.136;24.706;2022-07-10T05:41:28;98929.75;;;19.67;75.34
69879;BME280;57161;43.136;24.706;2022-07-10T05:43:53;98908.06;;;19.60;75.96
69879;BME280;57161;43.136;24.706;2022-07-10T05:46:19;98895.47;;;19.51;75.26
69879;BME280;57161;43.136;24.706;2022-07-10T05:48:44;98892.78;;;19.53;75.46
69879;BME280;57161;43.136;24.706;2022-07-10T05:51:10;98900.69;;;19.66;75.37
69879;BME280;57161;43.136;24.706;2022-07-10T05:53:36;98900.94;;;19.70;76.13
69879;BME280;57161;43.136;24.706;2022-07-10T05:56:02;98908.06;;;19.95;75.98
69879;BME280;57161;43.136;24.706;2022-07-10T05:58:28;98907.69;;;20.12;75.39
69879;BME280;57161;43.136;24.706;2022-07-10T06:00:54;98895.47;;;20.21;75.05
69879;BME280;57161;43.136;24.706;2022-07-10T06:03:20;98912.22;;;20.41;73.73
69879;BME280;57161;43.136;24.706;2022-07-10T06:05:46;98903.47;;;20.36;74.15
69879;BME280;57161;43.136;24.706;2022-07-10T06:08:12;98904.94;;;20.49;73.54
69879;BME280;57161;43.136;24.706;2022-07-10T06:10:37;98909.25;;;20.50;73.70
69879;BME280;57161;43.136;24.706;2022-07-10T06:13:05;98921.81;;;20.59;74.12
69879;BME280;57161;43.136;24.706;2022-07-10T06:15:31;98898.84;;;20.66;73.21
69879;BME280;57161;43.136;24.706;2022-07-10T06:17:57;98911.69;;;20.93;72.36
69879;BME280;57161;43.136;24.706;2022-07-10T06:20:26;98887.66;;;20.82;71.98
69879;BME280;57161;43.136;24.706;2022-07-10T06:22:51;98894.44;;;20.89;71.99
69879;BME280;57161;43.136;24.706;2022-07-10T06:25:17;98888.75;;;20.89;71.62
69879;BME280;57161;43.136;24.706;2022-07-10T06:27:42;98909.97;;;21.13;71.88
69879;BME280;57161;43.136;24.706;2022-07-10T06:30:08;98911.44;;;21.14;71.41
69879;BME280;57161;43.136;24.706;2022-07-10T06:32:33;98914.13;;;21.24;70.94
69879;BME280;57161;43.136;24.706;2022-07-10T06:34:59;98905.69;;;21.38;70.16
69879;BME280;57161;43.136;24.706;2022-07-10T06:37:25;98919.38;;;21.41;69.49
69879;BME280;57161;43.136;24.706;2022-07-10T06:39:50;98906.41;;;21.38;70.25
69879;BME280;57161;43.136;24.706;2022-07-10T06:42:16;98925.00;;;21.67;70.19
69879;BME280;57161;43.136;24.706;2022-07-10T06:44:42;98925.03;;;21.80;69.48
69879;BME280;57161;43.136;24.706;2022-07-10T06:47:08;98929.25;;;21.93;68.66
69879;BME280;57161;43.136;24.706;2022-07-10T06:49:52;98930.13;;;22.09;67.84
69879;BME280;57161;43.136;24.706;2022-07-10T06:52:18;98921.06;;;22.27;67.34
69879;BME280;57161;43.136;24.706;2022-07-10T06:54:44;98893.88;;;22.24;66.52
69879;BME280;57161;43.136;24.706;2022-07-10T06:57:10;98930.50;;;22.59;66.29
69879;BME280;57161;43.136;24.706;2022-07-10T06:59:36;98910.78;;;22.63;66.81
69879;BME280;57161;43.136;24.706;2022-07-10T07:02:01;98909.34;;;22.77;65.44
69879;BME280;57161;43.136;24.706;2022-07-10T07:04:27;98916.63;;;22.94;64.55
69879;BME280;57161;43.136;24.706;2022-07-10T07:06:53;98921.00;;;23.11;58.66
69879;BME280;57161;43.136;24.706;2022-07-10T07:09:18;98907.72;;;23.31;62.47
69879;BME280;57161;43.136;24.706;2022-07-10T07:11:43;98900.19;;;23.54;61.33
69879;BME280;57161;43.136;24.706;2022-07-10T07:14:09;98920.34;;;23.58;58.60
69879;BME280;57161;43.136;24.706;2022-07-10T07:16:34;98916.66;;;23.55;59.80
69879;BME280;57161;43.136;24.706;2022-07-10T07:19:06;98902.00;;;23.31;58.08
69879;BME280;57161;43.136;24.706;2022-07-10T07:21:32;98907.13;;;23.19;58.69
69879;BME280;57161;43.136;24.706;2022-07-10T07:24:16;98920.50;;;23.01;58.20
69879;BME280;57161;43.136;24.706;2022-07-10T07:26:44;98907.50;;;22.82;59.06
69879;BME280;57161;43.136;24.706;2022-07-10T07:29:15;98918.03;;;22.80;59.44
69879;BME280;57161;43.136;24.706;2022-07-10T07:31:41;98922.75;;;22.89;60.62
69879;BME280;57161;43.136;24.706;2022-07-10T07:34:06;98923.81;;;22.95;61.46
69879;BME280;57161;43.136;24.706;2022-07-10T07:36:32;98908.09;;;22.81;64.50
69879;BME280;57161;43.136;24.706;2022-07-10T07:38:58;98925.41;;;22.85;61.88
69879;BME280;57161;43.136;24.706;2022-07-10T07:41:23;98904.25;;;22.60;62.50
69879;BME280;57161;43.136;24.706;2022-07-10T07:43:49;98913.41;;;22.59;62.67
69879;BME280;57161;43.136;24.706;2022-07-10T07:46:15;98942.88;;;22.50;63.48
69879;BME280;57161;43.136;24.706;2022-07-10T07:48:40;98906.09;;;22.12;63.99
69879;BME280;57161;43.136;24.706;2022-07-10T07:51:07;98920.00;;;22.06;64.90
69879;BME280;57161;43.136;24.706;2022-07-10T07:53:34;98921.88;;;22.02;66.87
69879;BME280;57161;43.136;24.706;2022-07-10T07:56:03;98908.81;;;21.83;68.56
69879;BME280;57161;43.136;24.706;2022-07-10T07:58:29;98918.72;;;21.82;69.22
69879;BME280;57161;43.136;24.706;2022-07-10T08:00:55;98922.59;;;21.75;71.40
69879;BME280;57161;43.136;24.706;2022-07-10T08:03:22;98921.00;;;21.72;72.09
69879;BME280;57161;43.136;24.706;2022-07-10T08:05:47;98906.97;;;21.62;73.15
69879;BME280;57161;43.136;24.706;2022-07-10T08:08:14;98915.97;;;21.70;69.74
69879;BME280;57161;43.136;24.706;2022-07-10T08:10:43;98927.34;;;21.84;70.36
69879;BME280;57161;43.136;24.706;2022-07-10T08:13:08;98923.66;;;21.81;70.39
69879;BME280;57161;43.136;24.706;2022-07-10T08:15:34;98908.59;;;21.79;70.73
69879;BME280;57161;43.136;24.706;2022-07-10T08:18:00;98917.22;;;21.95;71.42
69879;BME280;57161;43.136;24.706;2022-07-10T08:20:26;98924.28;;;21.94;70.39
69879;BME280;57161;43.136;24.706;2022-07-10T08:22:52;98909.97;;;21.92;70.67
69879;BME280;57161;43.136;24.706;2022-07-10T08:25:20;98918.53;;;22.05;70.86
69879;BME280;57161;43.136;24.706;2022-07-10T08:27:46;98902.59;;;22.00;70.74
69879;BME280;57161;43.136;24.706;2022-07-10T08:30:12;98913.06;;;22.23;71.20
69879;BME280;57161;43.136;24.706;2022-07-10T08:32:39;98891.13;;;22.26;69.91
69879;BME280;57161;43.136;24.706;2022-07-10T08:35:06;98885.84;;;22.34;69.24
69879;BME280;57161;43.136;24.706;2022-07-10T08:37:43;98903.38;;;22.71;70.77
69879;BME280;57161;43.136;24.706;2022-07-10T08:40:12;98903.88;;;22.82;70.54
69879;BME280;57161;43.136;24.706;2022-07-10T08:42:39;98875.66;;;22.58;70.07
69879;BME280;57161;43.136;24.706;2022-07-10T08:45:07;98903.88;;;22.82;71.17
69879;BME280;57161;43.136;24.706;2022-07-10T08:47:36;98899.69;;;22.83;70.24
69879;BME280;57161;43.136;24.706;2022-07-10T08:50:04;98901.91;;;22.84;70.18
69879;BME280;57161;43.136;24.706;2022-07-10T08:52:43;98872.47;;;22.80;70.57
69879;BME280;57161;43.136;24.706;2022-07-10T08:55:13;98893.25;;;23.12;70.38
69879;BME280;57161;43.136;24.706;2022-07-10T08:57:39;98883.22;;;23.26;70.28
69879;BME280;57161;43.136;24.706;2022-07-10T09:00:06;98890.16;;;23.37;69.49
69879;BME280;57161;43.136;24.706;2022-07-10T09:02:32;98873.97;;;23.42;67.23
69879;BME280;57161;43.136;24.706;2022-07-10T09:04:57;98873.34;;;23.59;66.57
69879;BME280;57161;43.136;24.706;2022-07-10T09:07:24;98896.16;;;23.90;63.31
69879;BME280;57161;43.136;24.706;2022-07-10T09:09:56;98902.00;;;24.26;59.86
69879;BME280;57161;43.136;24.706;2022-07-10T09:12:22;98883.09;;;24.35;58.91
69879;BME280;57161;43.136;24.706;2022-07-10T09:14:49;98898.91;;;24.71;56.63
69879;BME280;57161;43.136;24.706;2022-07-10T09:17:15;98880.00;;;24.80;56.35
69879;BME280;57161;43.136;24.706;2022-07-10T09:19:42;98870.91;;;24.68;55.46
69879;BME280;57161;43.136;24.706;2022-07-10T09:22:09;98891.19;;;24.74;55.20
69879;BME280;57161;43.136;24.706;2022-07-10T09:24:43;98878.91;;;24.71;57.28
69879;BME280;57161;43.136;24.706;2022-07-10T09:27:11;98860.72;;;24.80;55.05
69879;BME280;57161;43.136;24.706;2022-07-10T09:29:51;98871.34;;;24.96;53.94
69879;BME280;57161;43.136;24.706;2022-07-10T09:32:20;98870.25;;;24.87;52.22
69879;BME280;57161;43.136;24.706;2022-07-10T09:34:50;98855.81;;;24.65;54.59
69879;BME280;57161;43.136;24.706;2022-07-10T09:37:39;98854.50;;;24.68;50.91
69879;BME280;57161;43.136;24.706;2022-07-10T09:40:06;98851.41;;;24.80;51.63
69879;BME280;57161;43.136;24.706;2022-07-10T09:47:42;98866.94;;;25.48;50.98
69879;BME280;57161;43.136;24.706;2022-07-10T09:50:32;98865.94;;;25.59;51.62
69879;BME280;57161;43.136;24.706;2022-07-10T09:53:05;98857.84;;;25.71;49.63
69879;BME280;57161;43.136;24.706;2022-07-10T09:55:35;98860.69;;;25.71;49.15
69879;BME280;57161;43.136;24.706;2022-07-10T09:58:05;98853.63;;;25.94;49.16
69879;BME280;57161;43.136;24.706;2022-07-10T10:00:36;98853.31;;;26.26;48.52
69879;BME280;57161;43.136;24.706;2022-07-10T10:03:04;98846.56;;;26.17;47.54
69879;BME280;57161;43.136;24.706;2022-07-10T10:08:16;98857.97;;;25.95;47.44
69879;BME280;57161;43.136;24.706;2022-07-10T10:10:50;98855.41;;;25.84;48.11
69879;BME280;57161;43.136;24.706;2022-07-10T10:13:24;98860.16;;;25.97;47.65
69879;BME280;57161;43.136;24.706;2022-07-10T10:15:53;98836.44;;;26.14;47.65
69879;BME280;57161;43.136;24.706;2022-07-10T10:18:24;98833.63;;;26.16;48.13
69879;BME280;57161;43.136;24.706;2022-07-10T10:20:52;98838.13;;;26.21;45.89
69879;BME280;57161;43.136;24.706;2022-07-10T10:23:20;98840.56;;;26.09;46.17
69879;BME280;57161;43.136;24.706;2022-07-10T10:25:53;98835.94;;;26.00;46.57
69879;BME280;57161;43.136;24.706;2022-07-10T10:28:20;98803.00;;;25.99;46.63
69879;BME280;57161;43.136;24.706;2022-07-10T10:30:50;98820.00;;;26.15;46.75
69879;BME280;57161;43.136;24.706;2022-07-10T10:36:00;98803.31;;;26.51;46.87
69879;BME280;57161;43.136;24.706;2022-07-10T10:46:35;98806.72;;;27.13;43.42
69879;BME280;57161;43.136;24.706;2022-07-10T10:49:05;98807.84;;;27.28;42.93
69879;BME280;57161;43.136;24.706;2022-07-10T10:51:59;98817.66;;;27.44;42.84
69879;BME280;57161;43.136;24.706;2022-07-10T10:54:26;98767.44;;;27.17;44.75
69879;BME280;57161;43.136;24.706;2022-07-10T10:59:49;98817.97;;;27.55;42.53
69879;BME280;57161;43.136;24.706;2022-07-10T11:04:46;98796.59;;;27.10;44.02
69879;BME280;57161;43.136;24.706;2022-07-10T11:07:11;98783.50;;;26.81;44.65
69879;BME280;57161;43.136;24.706;2022-07-10T11:09:37;98807.34;;;26.87;45.32
69879;BME280;57161;43.136;24.706;2022-07-10T11:12:10;98804.16;;;26.77;45.41
69879;BME280;57161;43.136;24.706;2022-07-10T11:14:45;98797.84;;;26.59;44.96
69879;BME280;57161;43.136;24.706;2022-07-10T11:17:11;98789.50;;;26.67;44.36
69879;BME280;57161;43.136;24.706;2022-07-10T11:19:38;98761.75;;;26.50;43.16
69879;BME280;57161;43.136;24.706;2022-07-10T11:30:09;98749.56;;;27.19;43.35
69879;BME280;57161;43.136;24.706;2022-07-10T11:32:35;98773.22;;;27.45;41.67
69879;BME280;57161;43.136;24.706;2022-07-10T11:35:01;98762.47;;;27.70;41.61
69879;BME280;57161;43.136;24.706;2022-07-10T11:37:26;98779.63;;;27.68;40.57
69879;BME280;57161;43.136;24.706;2022-07-10T11:40:11;98781.78;;;27.67;41.08
69879;BME280;57161;43.136;24.706;2022-07-10T11:42:56;98780.00;;;27.82;39.38
69879;BME280;57161;43.136;24.706;2022-07-10T11:45:28;98771.97;;;28.04;38.95
69879;BME280;57161;43.136;24.706;2022-07-10T11:47:54;98757.34;;;27.94;37.92
69879;BME280;57161;43.136;24.706;2022-07-10T11:50:20;98750.56;;;28.09;38.46
69879;BME280;57161;43.136;24.706;2022-07-10T11:52:46;98754.84;;;28.36;37.90
69879;BME280;57161;43.136;24.706;2022-07-10T11:55:20;98756.38;;;28.72;38.37
69879;BME280;57161;43.136;24.706;2022-07-10T11:57:46;98718.59;;;28.85;36.76
69879;BME280;57161;43.136;24.706;2022-07-10T12:00:26;98743.59;;;29.11;36.99
69879;BME280;57161;43.136;24.706;2022-07-10T12:02:53;98745.47;;;28.06;37.21
69879;BME280;57161;43.136;24.706;2022-07-10T12:05:33;98753.03;;;27.93;37.98
69879;BME280;57161;43.136;24.706;2022-07-10T12:07:59;98742.59;;;27.78;37.85
69879;BME280;57161;43.136;24.706;2022-07-10T12:10:28;98754.66;;;28.00;37.64
69879;BME280;57161;43.136;24.706;2022-07-10T12:13:08;98757.34;;;28.22;37.08
69879;BME280;57161;43.136;24.706;2022-07-10T12:15:43;98754.16;;;28.38;37.09
69879;BME280;57161;43.136;24.706;2022-07-10T12:18:19;98755.06;;;28.77;36.26
69879;BME280;57161;43.136;24.706;2022-07-10T12:20:46;98746.38;;;28.75;36.51
69879;BME280;57161;43.136;24.706;2022-07-10T12:23:14;98752.13;;;28.75;37.05
69879;BME280;57161;43.136;24.706;2022-07-10T12:25:42;98732.91;;;28.81;35.66
69879;BME280;57161;43.136;24.706;2022-07-10T12:28:08;98730.25;;;28.91;35.35
69879;BME280;57161;43.136;24.706;2022-07-10T12:30:43;98749.31;;;29.09;35.48
69879;BME280;57161;43.136;24.706;2022-07-10T12:33:12;98739.84;;;29.38;35.01
69879;BME280;57161;43.136;24.706;2022-07-10T12:35:50;98730.78;;;28.84;35.52
69879;BME280;57161;43.136;24.706;2022-07-10T12:38:37;98737.75;;;28.43;37.18
69879;BME280;57161;43.136;24.706;2022-07-10T12:41:12;98733.50;;;28.46;36.76
69879;BME280;57161;43.136;24.706;2022-07-10T12:43:39;98734.41;;;28.52;36.17
69879;BME280;57161;43.136;24.706;2022-07-10T12:48:37;98724.47;;;28.89;35.75
69879;BME280;57161;43.136;24.706;2022-07-10T12:51:32;98732.84;;;28.79;36.98
69879;BME280;57161;43.136;24.706;2022-07-10T12:53:58;98725.31;;;28.96;36.58
69879;BME280;57161;43.136;24.706;2022-07-10T12:56:28;98711.72;;;28.66;36.09
69879;BME280;57161;43.136;24.706;2022-07-10T12:58:54;98710.63;;;28.82;36.51
69879;BME280;57161;43.136;24.706;2022-07-10T13:01:19;98720.22;;;28.92;36.33
69879;BME280;57161;43.136;24.706;2022-07-10T13:03:45;98714.03;;;29.06;35.08
69879;BME280;57161;43.136;24.706;2022-07-10T13:06:46;98732.94;;;29.15;35.03
69879;BME280;57161;43.136;24.706;2022-07-10T13:09:25;98726.91;;;29.03;34.76
69879;BME280;57161;43.136;24.706;2022-07-10T13:11:52;98698.63;;;28.59;36.13
69879;BME280;57161;43.136;24.706;2022-07-10T13:14:18;98707.09;;;28.85;35.63
69879;BME280;57161;43.136;24.706;2022-07-10T13:16:44;98718.22;;;28.99;35.67
69879;BME280;57161;43.136;24.706;2022-07-10T13:19:10;98720.41;;;28.68;34.37
69879;BME280;57161;43.136;24.706;2022-07-10T13:21:36;98711.94;;;28.45;33.96
69879;BME280;57161;43.136;24.706;2022-07-10T13:24:05;98711.84;;;28.73;34.41
69879;BME280;57161;43.136;24.706;2022-07-10T13:26:31;98717.00;;;28.78;34.99